Terminal Aerodrome Forecast
Issued by NWS

Home | Current Version | Previous Version | Text Only | Print | Product List | Glossary On
Versions: 1 2 3 4 5 6 7 8 9 10 11 12
000
FTUS46 KPDT 050520
TAFALW
TAF
KALW 050520Z 0506/0606 14008KT P6SM SCT150
     FM051500 25010KT P6SM SCT250
     FM052300 20015G24KT P6SM VCTS SCT090CB BKN120
     FM060400 18012KT P6SM BKN150=

USA.gov is the U.S. government's official web portal to all federal, state and local government web resources and services.